createdAt,value
2018-09-30T00:00:10.157Z,0
2018-09-30T00:03:10.263Z,0
2018-09-30T00:06:10.469Z,0
2018-09-30T00:09:10.641Z,0
2018-09-30T00:12:10.841Z,0
2018-09-30T00:15:10.229Z,0
2018-09-30T00:18:10.678Z,0
2018-09-30T00:21:11.018Z,0
2018-09-30T00:24:10.311Z,0
2018-09-30T00:27:10.696Z,0
2018-09-30T00:30:10.958Z,0
2018-09-30T00:33:10.183Z,0
2018-09-30T00:36:10.507Z,0
2018-09-30T00:39:10.777Z,0
2018-09-30T00:42:11.158Z,0
2018-09-30T00:45:10.447Z,0
2018-09-30T00:48:10.647Z,0
2018-09-30T00:51:10.854Z,0
2018-09-30T00:54:10.079Z,0
2018-09-30T00:57:10.437Z,0
2018-09-30T01:00:10.681Z,0
2018-09-30T01:03:11.018Z,0
2018-09-30T01:06:10.260Z,0
2018-09-30T01:09:10.555Z,0
2018-09-30T01:12:10.750Z,0
2018-09-30T01:15:11.011Z,0
2018-09-30T01:18:10.415Z,0
2018-09-30T01:21:10.660Z,0
2018-09-30T01:24:10.748Z,0
2018-09-30T01:27:10.903Z,0
2018-09-30T01:30:10.219Z,0
2018-09-30T01:33:10.360Z,0
2018-09-30T01:36:10.729Z,0
2018-09-30T01:39:10.901Z,0
2018-09-30T01:42:10.134Z,0
2018-09-30T01:45:10.277Z,0
2018-09-30T01:48:10.495Z,0
2018-09-30T01:51:10.703Z,0
2018-09-30T01:54:11.047Z,0
2018-09-30T01:57:10.313Z,0
2018-09-30T02:00:10.489Z,0
2018-09-30T02:03:10.636Z,0
2018-09-30T02:06:10.944Z,0
2018-09-30T02:09:10.257Z,0
2018-09-30T02:12:10.502Z,0
2018-09-30T02:15:10.844Z,0
2018-09-30T02:18:10.161Z,0
2018-09-30T02:21:10.317Z,0
2018-09-30T02:24:10.570Z,0
2018-09-30T02:27:10.808Z,0
2018-09-30T02:30:09.979Z,0
2018-09-30T02:33:10.178Z,0
2018-09-30T02:36:10.467Z,0
2018-09-30T02:39:10.701Z,0
2018-09-30T02:42:11.047Z,0
2018-09-30T02:45:10.198Z,0
2018-09-30T02:48:10.594Z,0
2018-09-30T02:51:10.804Z,0
2018-09-30T02:54:09.858Z,0
2018-09-30T02:57:10.181Z,0
2018-09-30T03:00:10.515Z,0
2018-09-30T03:03:10.727Z,0
2018-09-30T03:06:10.956Z,0
2018-09-30T03:09:10.201Z,0
2018-09-30T03:12:10.710Z,0
2018-09-30T03:15:10.973Z,0
2018-09-30T03:18:10.291Z,0
2018-09-30T03:21:10.570Z,0
2018-09-30T03:24:10.897Z,0
2018-09-30T03:27:10.163Z,0
2018-09-30T03:30:10.444Z,0
2018-09-30T03:33:10.657Z,0
2018-09-30T03:36:10.911Z,0
2018-09-30T03:39:10.213Z,0
2018-09-30T03:42:10.530Z,0
2018-09-30T03:45:10.655Z,0
2018-09-30T03:48:10.958Z,0
2018-09-30T03:51:10.149Z,0
2018-09-30T03:54:10.504Z,0
2018-09-30T03:57:10.908Z,0
2018-09-30T04:00:10.272Z,0
2018-09-30T04:03:10.598Z,0
2018-09-30T04:06:10.873Z,0
2018-09-30T04:09:10.136Z,0
2018-09-30T04:12:10.414Z,0
2018-09-30T04:15:10.998Z,0
2018-09-30T04:18:10.378Z,0
2018-09-30T04:21:10.685Z,0
2018-09-30T04:24:10.962Z,0
2018-09-30T04:27:10.712Z,0
2018-09-30T04:30:11.800Z,0
2018-09-30T04:33:10.489Z,0
2018-09-30T04:36:10.831Z,0
2018-09-30T04:39:10.167Z,0
2018-09-30T04:42:10.310Z,0
2018-09-30T04:45:10.612Z,0
2018-09-30T04:48:10.298Z,0
2018-09-30T04:51:10.577Z,0
2018-09-30T04:54:10.861Z,1
2018-09-30T04:57:10.004Z,2
2018-09-30T05:00:10.847Z,3
2018-09-30T05:03:10.381Z,6
2018-09-30T05:06:10.171Z,10
2018-09-30T05:09:10.618Z,18
2018-09-30T05:12:11.066Z,30
2018-09-30T05:15:10.462Z,48
2018-09-30T05:18:11.061Z,73
2018-09-30T05:21:10.531Z,107
2018-09-30T05:24:10.893Z,149
2018-09-30T05:27:10.283Z,202
2018-09-30T05:30:10.821Z,268
2018-09-30T05:33:10.301Z,362
2018-09-30T05:36:10.600Z,493
2018-09-30T05:39:10.960Z,648
2018-09-30T05:42:10.296Z,825
2018-09-30T05:45:10.488Z,1021
2018-09-30T05:48:10.759Z,1232
2018-09-30T05:51:11.065Z,1448
2018-09-30T05:54:10.459Z,1618
2018-09-30T05:57:15.767Z,1791
2018-09-30T06:00:10.150Z,2012
2018-09-30T06:03:10.590Z,2312
2018-09-30T06:06:11.045Z,2761
2018-09-30T06:09:10.930Z,3004
2018-09-30T06:12:10.413Z,2770
2018-09-30T06:15:10.907Z,2664
2018-09-30T06:18:10.236Z,2804
2018-09-30T06:21:10.390Z,3159
2018-09-30T06:24:11.064Z,3192
2018-09-30T06:27:10.335Z,3106
2018-09-30T06:30:10.745Z,3142
2018-09-30T06:33:10.103Z,3219
2018-09-30T06:36:10.562Z,3279
2018-09-30T06:39:11.070Z,3397
2018-09-30T06:42:10.401Z,3442
2018-09-30T06:45:11.028Z,3517
2018-09-30T06:48:10.592Z,3568
2018-09-30T06:51:10.854Z,3652
2018-09-30T06:54:10.141Z,3839
2018-09-30T06:57:10.330Z,3873
2018-09-30T07:00:10.690Z,3871
2018-09-30T07:03:10.947Z,3973
2018-09-30T07:06:10.283Z,5629
2018-09-30T07:09:10.686Z,7069
2018-09-30T07:12:11.164Z,5378
2018-09-30T07:15:10.665Z,4745
2018-09-30T07:18:11.087Z,4732
2018-09-30T07:21:10.288Z,4900
2018-09-30T07:24:11.002Z,5360
2018-09-30T07:27:10.220Z,5728
2018-09-30T07:30:10.776Z,6273
2018-09-30T07:33:10.065Z,6308
2018-09-30T07:36:10.605Z,6218
2018-09-30T07:39:10.978Z,6016
2018-09-30T07:42:10.894Z,6223
2018-09-30T07:45:10.199Z,6833
2018-09-30T07:48:10.481Z,7349
2018-09-30T07:51:10.822Z,7803
2018-09-30T07:54:15.396Z,8505
2018-09-30T07:57:10.824Z,9732
2018-09-30T08:00:10.428Z,17383
2018-09-30T08:03:10.807Z,38371
2018-09-30T08:06:10.115Z,40152
2018-09-30T08:09:10.643Z,40719
2018-09-30T08:12:10.981Z,40391
2018-09-30T08:15:10.431Z,41922
2018-09-30T08:18:11.152Z,44314
2018-09-30T08:21:10.558Z,46038
2018-09-30T08:24:11.252Z,45687
2018-09-30T08:27:10.700Z,44621
2018-09-30T08:30:11.085Z,43878
2018-09-30T08:33:10.579Z,38663
2018-09-30T08:36:10.981Z,38205
2018-09-30T08:39:10.384Z,45322
2018-09-30T08:42:10.642Z,46556
2018-09-30T08:45:11.053Z,45308
2018-09-30T08:48:10.533Z,49822
2018-09-30T08:51:11.000Z,50553
2018-09-30T08:54:10.292Z,54279
2018-09-30T08:57:10.683Z,54612
2018-09-30T09:00:10.980Z,54612
2018-09-30T09:03:10.651Z,50109
2018-09-30T09:06:10.993Z,53905
2018-09-30T09:09:10.441Z,54612
2018-09-30T09:12:11.291Z,54612
2018-09-30T09:15:11.206Z,52507
2018-09-30T09:18:10.626Z,54612
2018-09-30T09:21:10.926Z,54612
2018-09-30T09:24:10.320Z,54612
2018-09-30T09:27:10.627Z,54612
2018-09-30T09:30:10.938Z,54612
2018-09-30T09:33:10.526Z,54612
2018-09-30T09:36:11.128Z,54612
2018-09-30T09:39:10.480Z,54612
2018-09-30T09:42:10.866Z,54612
2018-09-30T09:45:10.229Z,54612
2018-09-30T09:48:10.636Z,54612
2018-09-30T09:51:11.191Z,54612
2018-09-30T09:54:10.697Z,54612
2018-09-30T09:57:11.181Z,54612
2018-09-30T10:00:10.467Z,54612
2018-09-30T10:03:10.885Z,54612
2018-09-30T10:06:10.120Z,54612
2018-09-30T10:09:10.429Z,54612
2018-09-30T10:12:10.580Z,54612
2018-09-30T10:15:11.018Z,54612
2018-09-30T10:18:10.479Z,51399
2018-09-30T10:21:10.768Z,54612
2018-09-30T10:24:11.088Z,54612
2018-09-30T10:27:10.572Z,42687
2018-09-30T10:30:10.833Z,53503
2018-09-30T10:33:10.139Z,21612
2018-09-30T10:36:10.592Z,54612
2018-09-30T10:39:11.238Z,54612
2018-09-30T10:42:10.784Z,36330
2018-09-30T10:45:10.363Z,12932
2018-09-30T10:48:10.690Z,12602
2018-09-30T10:51:11.248Z,12386
2018-09-30T10:54:10.674Z,12018
2018-09-30T10:57:10.935Z,11681
2018-09-30T11:00:10.283Z,11528
2018-09-30T11:03:10.794Z,24479
2018-09-30T11:06:10.074Z,54612
2018-09-30T11:09:10.453Z,54612
2018-09-30T11:12:10.879Z,54612
2018-09-30T11:15:10.682Z,36890
2018-09-30T11:18:16.313Z,54612
2018-09-30T11:21:10.744Z,54612
2018-09-30T11:24:10.180Z,54612
2018-09-30T11:27:10.580Z,35947
2018-09-30T11:30:10.847Z,10882
2018-09-30T11:33:10.099Z,12332
2018-09-30T11:36:10.480Z,9708
2018-09-30T11:39:10.890Z,8088
2018-09-30T11:42:10.196Z,7573
2018-09-30T11:45:10.622Z,6739
2018-09-30T11:48:11.010Z,6728
2018-09-30T11:51:10.336Z,6679
2018-09-30T11:54:10.713Z,6635
2018-09-30T11:57:11.188Z,6533
2018-09-30T12:00:10.905Z,6437
2018-09-30T12:03:10.312Z,6288
2018-09-30T12:06:10.562Z,6129
2018-09-30T12:09:11.093Z,6018
2018-09-30T12:12:10.547Z,6459
2018-09-30T12:15:10.947Z,6365
2018-09-30T12:18:10.312Z,6284
2018-09-30T12:21:10.780Z,6192
2018-09-30T12:24:10.091Z,6096
2018-09-30T12:27:10.770Z,6027
2018-09-30T12:30:10.231Z,5949
2018-09-30T12:33:10.634Z,5887
2018-09-30T12:36:10.990Z,5815
2018-09-30T12:39:10.443Z,5744
2018-09-30T12:42:10.979Z,5656
2018-09-30T12:45:10.430Z,5546
2018-09-30T12:48:10.772Z,5442
2018-09-30T12:51:11.014Z,5378
2018-09-30T12:54:10.446Z,5312
2018-09-30T12:57:10.921Z,5251
2018-09-30T13:00:10.275Z,5196
2018-09-30T13:03:10.677Z,5140
2018-09-30T13:06:11.097Z,5082
2018-09-30T13:09:10.487Z,5008
2018-09-30T13:12:11.090Z,4942
2018-09-30T13:15:10.420Z,4892
2018-09-30T13:18:10.932Z,4837
2018-09-30T13:21:10.231Z,4786
2018-09-30T13:24:10.643Z,4735
2018-09-30T13:27:11.012Z,4673
2018-09-30T13:30:10.418Z,4629
2018-09-30T13:33:10.698Z,4567
2018-09-30T13:36:10.869Z,4248
2018-09-30T13:39:11.224Z,4195
2018-09-30T13:42:10.697Z,4143
2018-09-30T13:45:11.005Z,4106
2018-09-30T13:48:10.432Z,4048
2018-09-30T13:51:10.859Z,3992
2018-09-30T13:54:10.377Z,3921
2018-09-30T13:57:10.655Z,3862
2018-09-30T14:00:11.076Z,3805
2018-09-30T14:03:10.332Z,3752
2018-09-30T14:06:10.548Z,3702
2018-09-30T14:09:10.829Z,3655
2018-09-30T14:12:10.178Z,3008
2018-09-30T14:15:10.571Z,2955
2018-09-30T14:18:10.924Z,3105
2018-09-30T14:21:10.308Z,3798
2018-09-30T14:24:10.953Z,3751
2018-09-30T14:27:10.638Z,3716
2018-09-30T14:30:11.326Z,3671
2018-09-30T14:33:10.679Z,3607
2018-09-30T14:36:11.025Z,3547
2018-09-30T14:39:10.361Z,3492
2018-09-30T14:42:11.052Z,3432
2018-09-30T14:45:10.376Z,3360
2018-09-30T14:48:11.085Z,3301
2018-09-30T14:51:10.419Z,3228
2018-09-30T14:54:11.065Z,3176
2018-09-30T14:57:10.449Z,3128
2018-09-30T15:00:10.788Z,3089
2018-09-30T15:03:10.275Z,3029
2018-09-30T15:06:10.716Z,2958
2018-09-30T15:09:10.054Z,2888
2018-09-30T15:12:10.284Z,2812
2018-09-30T15:15:10.682Z,2734
2018-09-30T15:18:11.390Z,2676
2018-09-30T15:21:10.913Z,2610
2018-09-30T15:24:10.348Z,2550
2018-09-30T15:27:10.939Z,2501
2018-09-30T15:30:10.346Z,2432
2018-09-30T15:33:10.687Z,2372
2018-09-30T15:36:10.992Z,2292
2018-09-30T15:39:10.350Z,2221
2018-09-30T15:42:10.646Z,2148
2018-09-30T15:45:11.033Z,2086
2018-09-30T15:48:10.409Z,2017
2018-09-30T15:51:10.943Z,1952
2018-09-30T15:54:10.132Z,1888
2018-09-30T15:57:10.388Z,1818
2018-09-30T16:00:10.653Z,1745
2018-09-30T16:03:11.105Z,1671
2018-09-30T16:06:10.713Z,1600
2018-09-30T16:09:11.015Z,1540
2018-09-30T16:12:10.287Z,1473
2018-09-30T16:15:10.669Z,1404
2018-09-30T16:18:11.013Z,1329
2018-09-30T16:21:10.557Z,1256
2018-09-30T16:24:10.853Z,1178
2018-09-30T16:27:10.220Z,1096
2018-09-30T16:30:10.953Z,999
2018-09-30T16:33:10.448Z,916
2018-09-30T16:36:11.153Z,849
2018-09-30T16:39:10.780Z,782
2018-09-30T16:42:10.098Z,717
2018-09-30T16:45:10.460Z,645
2018-09-30T16:48:10.739Z,577
2018-09-30T16:51:11.329Z,508
2018-09-30T16:54:11.821Z,437
2018-09-30T16:57:10.140Z,377
2018-09-30T17:00:15.481Z,318
2018-09-30T17:03:10.746Z,261
2018-09-30T17:06:11.173Z,210
2018-09-30T17:09:10.639Z,161
2018-09-30T17:12:11.118Z,116
2018-09-30T17:15:10.447Z,79
2018-09-30T17:18:10.984Z,53
2018-09-30T17:21:10.321Z,33
2018-09-30T17:24:10.802Z,20
2018-09-30T17:27:10.089Z,12
2018-09-30T17:30:10.449Z,7
2018-09-30T17:33:10.650Z,3
2018-09-30T17:36:11.037Z,2
2018-09-30T17:39:10.276Z,1
2018-09-30T17:42:10.566Z,1
2018-09-30T17:45:10.976Z,1
2018-09-30T17:48:10.260Z,0
2018-09-30T17:51:10.696Z,0
2018-09-30T17:54:10.130Z,0
2018-09-30T17:57:10.260Z,0
2018-09-30T18:00:10.818Z,0
2018-09-30T18:03:10.317Z,0
2018-09-30T18:06:10.609Z,0
2018-09-30T18:09:10.849Z,0
2018-09-30T18:12:10.071Z,0
2018-09-30T18:15:10.493Z,0
2018-09-30T18:18:11.027Z,0
2018-09-30T18:21:10.421Z,0
2018-09-30T18:24:10.919Z,0
2018-09-30T18:27:10.298Z,0
2018-09-30T18:30:10.707Z,0
2018-09-30T18:33:11.120Z,0
2018-09-30T18:36:10.541Z,0
2018-09-30T18:39:10.964Z,0
2018-09-30T18:42:10.526Z,0
2018-09-30T18:45:10.914Z,0
2018-09-30T18:48:10.259Z,0
2018-09-30T18:51:10.734Z,0
2018-09-30T18:54:10.998Z,0
2018-09-30T18:57:10.389Z,0
2018-09-30T19:00:10.852Z,0
2018-09-30T19:03:10.222Z,0
2018-09-30T19:06:10.630Z,0
2018-09-30T19:09:11.102Z,0
2018-09-30T19:12:10.459Z,0
2018-09-30T19:15:11.057Z,0
2018-09-30T19:18:10.666Z,0
2018-09-30T19:21:10.958Z,0
2018-09-30T19:24:10.143Z,0
2018-09-30T19:27:10.445Z,0
2018-09-30T19:30:26.056Z,0
2018-09-30T19:33:10.616Z,0
2018-09-30T19:36:10.954Z,0
2018-09-30T19:39:10.347Z,0
2018-09-30T19:42:10.764Z,0
2018-09-30T19:45:11.219Z,0
2018-09-30T19:48:10.628Z,0
2018-09-30T19:51:10.937Z,0
2018-09-30T19:54:10.417Z,0
2018-09-30T19:57:10.780Z,0
2018-09-30T20:00:10.040Z,0
2018-09-30T20:03:10.389Z,0
2018-09-30T20:06:10.548Z,0
2018-09-30T20:09:11.134Z,0
2018-09-30T20:12:10.532Z,0
2018-09-30T20:15:10.955Z,0
2018-09-30T20:18:10.459Z,0
2018-09-30T20:21:10.762Z,0
2018-09-30T20:24:11.088Z,0
2018-09-30T20:27:10.566Z,0
2018-09-30T20:30:10.796Z,0
2018-09-30T20:33:10.287Z,0
2018-09-30T20:36:10.616Z,0
2018-09-30T20:39:10.951Z,0
2018-09-30T20:42:10.333Z,0
2018-09-30T20:45:10.521Z,0
2018-09-30T20:48:10.864Z,0
2018-09-30T20:51:10.233Z,0
2018-09-30T20:54:10.562Z,0
2018-09-30T20:57:11.073Z,0
2018-09-30T21:00:10.318Z,0
2018-09-30T21:03:10.691Z,0
2018-09-30T21:06:11.067Z,0
2018-09-30T21:09:10.330Z,0
2018-09-30T21:12:10.546Z,0
2018-09-30T21:15:10.821Z,0
2018-09-30T21:18:10.317Z,0
2018-09-30T21:21:10.479Z,0
2018-09-30T21:24:10.654Z,0
2018-09-30T21:27:11.060Z,0
2018-09-30T21:30:10.347Z,0
2018-09-30T21:33:10.637Z,0
2018-09-30T21:36:10.838Z,0
2018-09-30T21:39:10.253Z,0
2018-09-30T21:42:10.641Z,0
2018-09-30T21:45:10.773Z,0
2018-09-30T21:48:11.248Z,0
2018-09-30T21:51:10.597Z,0
2018-09-30T21:54:10.880Z,0
2018-09-30T21:57:10.313Z,0
2018-09-30T22:00:10.662Z,0
2018-09-30T22:03:10.930Z,0
2018-09-30T22:06:10.218Z,0
2018-09-30T22:09:10.672Z,0
2018-09-30T22:12:10.910Z,0
2018-09-30T22:15:10.163Z,0
2018-09-30T22:18:10.625Z,0
2018-09-30T22:21:10.978Z,0
2018-09-30T22:24:10.351Z,0
2018-09-30T22:27:10.780Z,0
2018-09-30T22:30:09.995Z,0
2018-09-30T22:33:10.348Z,0
2018-09-30T22:36:10.512Z,0
2018-09-30T22:39:10.720Z,0
2018-09-30T22:42:11.069Z,0
2018-09-30T22:45:10.330Z,0
2018-09-30T22:48:10.519Z,0
2018-09-30T22:51:10.785Z,0
2018-09-30T22:54:10.001Z,0
2018-09-30T22:57:10.351Z,0
2018-09-30T23:00:10.600Z,0
2018-09-30T23:03:10.951Z,0
2018-09-30T23:06:10.204Z,0
2018-09-30T23:09:10.609Z,0
2018-09-30T23:12:10.709Z,0
2018-09-30T23:15:10.929Z,0
2018-09-30T23:18:10.313Z,0
2018-09-30T23:21:10.464Z,0
2018-09-30T23:24:10.704Z,0
2018-09-30T23:27:10.893Z,0
2018-09-30T23:30:10.087Z,0
2018-09-30T23:33:10.400Z,0
2018-09-30T23:36:10.860Z,0
2018-09-30T23:39:10.177Z,0
2018-09-30T23:42:10.386Z,0
2018-09-30T23:45:10.770Z,0
2018-09-30T23:48:11.112Z,0
2018-09-30T23:51:10.464Z,0
2018-09-30T23:54:10.748Z,0
2018-09-30T23:57:11.137Z,0
